sensor_id;sensor_type;location;lat;lon;timestamp;P1;P2;P0
20157;PMS5003;10239;56.820;24.416;2024-03-22T00:02:07;30.00;21.40;8.60
20157;PMS5003;10239;56.820;24.416;2024-03-22T00:04:37;22.00;16.20;5.40
20157;PMS5003;10239;56.820;24.416;2024-03-22T00:07:04;31.60;23.40;9.00
20157;PMS5003;10239;56.820;24.416;2024-03-22T00:09:30;31.80;19.40;8.00
20157;PMS5003;10239;56.820;24.416;2024-03-22T00:11:57;31.40;30.20;11.60
20157;PMS5003;10239;56.820;24.416;2024-03-22T00:14:24;31.80;19.80;4.80
20157;PMS5003;10239;56.820;24.416;2024-03-22T00:16:50;36.40;23.40;8.40
20157;PMS5003;10239;56.820;24.416;2024-03-22T00:19:17;22.20;15.00;8.00
20157;PMS5003;10239;56.820;24.416;2024-03-22T00:21:43;30.80;24.20;9.60
20157;PMS5003;10239;56.820;24.416;2024-03-22T00:24:10;31.80;27.20;9.00
20157;PMS5003;10239;56.820;24.416;2024-03-22T00:26:36;34.60;22.00;9.00
20157;PMS5003;10239;56.820;24.416;2024-03-22T00:29:02;28.60;24.40;10.80
20157;PMS5003;10239;56.820;24.416;2024-03-22T00:31:29;24.80;18.80;5.00
20157;PMS5003;10239;56.820;24.416;2024-03-22T00:33:55;25.20;18.60;7.20
20157;PMS5003;10239;56.820;24.416;2024-03-22T00:36:22;34.20;25.60;12.00
20157;PMS5003;10239;56.820;24.416;2024-03-22T00:38:49;39.60;23.80;7.20
20157;PMS5003;10239;56.820;24.416;2024-03-22T00:41:15;33.20;19.20;8.80
20157;PMS5003;10239;56.820;24.416;2024-03-22T00:43:41;20.60;11.60;4.20
20157;PMS5003;10239;56.820;24.416;2024-03-22T00:46:08;35.20;23.80;9.60
20157;PMS5003;10239;56.820;24.416;2024-03-22T00:48:34;25.00;15.40;7.80
20157;PMS5003;10239;56.820;24.416;2024-03-22T00:51:02;22.80;17.80;7.00
20157;PMS5003;10239;56.820;24.416;2024-03-22T00:53:29;35.80;27.80;10.60
20157;PMS5003;10239;56.820;24.416;2024-03-22T00:55:55;18.00;13.00;8.00
20157;PMS5003;10239;56.820;24.416;2024-03-22T00:58:27;20.60;11.40;8.40
20157;PMS5003;10239;56.820;24.416;2024-03-22T01:00:54;29.00;23.00;9.00
20157;PMS5003;10239;56.820;24.416;2024-03-22T01:03:21;31.20;29.60;10.00
20157;PMS5003;10239;56.820;24.416;2024-03-22T01:05:48;26.40;21.40;9.80
20157;PMS5003;10239;56.820;24.416;2024-03-22T01:08:14;27.40;19.20;7.40
20157;PMS5003;10239;56.820;24.416;2024-03-22T01:10:40;28.00;18.80;5.00
20157;PMS5003;10239;56.820;24.416;2024-03-22T01:13:07;28.80;22.20;7.20
20157;PMS5003;10239;56.820;24.416;2024-03-22T01:15:34;30.80;22.00;8.60
20157;PMS5003;10239;56.820;24.416;2024-03-22T01:18:01;14.20;10.00;8.00
20157;PMS5003;10239;56.820;24.416;2024-03-22T01:20:27;34.60;24.20;9.00
20157;PMS5003;10239;56.820;24.416;2024-03-22T01:22:54;31.80;20.40;9.00
20157;PMS5003;10239;56.820;24.416;2024-03-22T01:25:21;29.40;22.00;11.20
20157;PMS5003;10239;56.820;24.416;2024-03-22T01:27:47;32.60;23.40;9.00
20157;PMS5003;10239;56.820;24.416;2024-03-22T01:30:14;26.60;22.20;9.00
20157;PMS5003;10239;56.820;24.416;2024-03-22T01:32:40;21.40;18.00;8.00
20157;PMS5003;10239;56.820;24.416;2024-03-22T01:35:07;42.60;29.20;12.40
20157;PMS5003;10239;56.820;24.416;2024-03-22T01:37:34;28.80;21.80;7.20
20157;PMS5003;10239;56.820;24.416;2024-03-22T01:40:01;25.40;20.80;6.60
20157;PMS5003;10239;56.820;24.416;2024-03-22T01:42:28;28.60;22.00;10.40
20157;PMS5003;10239;56.820;24.416;2024-03-22T01:44:54;34.60;24.60;8.40
20157;PMS5003;10239;56.820;24.416;2024-03-22T01:47:21;30.00;22.40;6.60
20157;PMS5003;10239;56.820;24.416;2024-03-22T01:49:48;28.80;22.20;7.40
20157;PMS5003;10239;56.820;24.416;2024-03-22T01:52:16;34.40;20.60;7.80
20157;PMS5003;10239;56.820;24.416;2024-03-22T01:54:43;29.80;22.60;9.80
20157;PMS5003;10239;56.820;24.416;2024-03-22T01:57:09;30.00;24.40;9.00
20157;PMS5003;10239;56.820;24.416;2024-03-22T01:59:36;27.40;21.60;8.60
20157;PMS5003;10239;56.820;24.416;2024-03-22T02:02:03;32.20;19.80;8.80
20157;PMS5003;10239;56.820;24.416;2024-03-22T02:04:29;20.60;14.40;5.60
20157;PMS5003;10239;56.820;24.416;2024-03-22T02:06:56;31.40;23.40;10.60
20157;PMS5003;10239;56.820;24.416;2024-03-22T02:09:22;38.60;26.40;10.40
20157;PMS5003;10239;56.820;24.416;2024-03-22T02:11:49;28.80;20.60;8.40
20157;PMS5003;10239;56.820;24.416;2024-03-22T02:14:16;30.20;11.20;5.80
20157;PMS5003;10239;56.820;24.416;2024-03-22T02:16:42;30.40;23.60;9.20
20157;PMS5003;10239;56.820;24.416;2024-03-22T02:19:10;39.20;29.20;9.80
20157;PMS5003;10239;56.820;24.416;2024-03-22T02:21:37;38.00;27.40;9.00
20157;PMS5003;10239;56.820;24.416;2024-03-22T02:24:03;44.60;29.00;10.00
20157;PMS5003;10239;56.820;24.416;2024-03-22T02:26:30;35.20;24.00;10.40
20157;PMS5003;10239;56.820;24.416;2024-03-22T02:28:56;24.20;16.80;8.00
20157;PMS5003;10239;56.820;24.416;2024-03-22T02:31:23;38.40;25.60;9.60
20157;PMS5003;10239;56.820;24.416;2024-03-22T02:33:51;27.00;19.00;8.00
20157;PMS5003;10239;56.820;24.416;2024-03-22T02:36:17;23.80;19.00;5.60
20157;PMS5003;10239;56.820;24.416;2024-03-22T02:38:43;40.40;27.00;11.20
20157;PMS5003;10239;56.820;24.416;2024-03-22T02:41:10;30.60;24.60;10.00
20157;PMS5003;10239;56.820;24.416;2024-03-22T02:43:37;22.40;22.40;9.40
20157;PMS5003;10239;56.820;24.416;2024-03-22T02:46:03;29.00;24.00;11.60
20157;PMS5003;10239;56.820;24.416;2024-03-22T02:48:29;31.00;23.60;9.00
20157;PMS5003;10239;56.820;24.416;2024-03-22T02:50:57;27.40;17.80;6.00
20157;PMS5003;10239;56.820;24.416;2024-03-22T02:53:24;20.40;14.00;3.40
20157;PMS5003;10239;56.820;24.416;2024-03-22T02:55:50;31.20;24.40;10.00
20157;PMS5003;10239;56.820;24.416;2024-03-22T02:58:17;28.60;20.00;10.00
20157;PMS5003;10239;56.820;24.416;2024-03-22T03:00:44;29.40;21.60;9.80
20157;PMS5003;10239;56.820;24.416;2024-03-22T03:03:11;14.80;13.00;8.20
20157;PMS5003;10239;56.820;24.416;2024-03-22T03:05:37;34.40;22.60;9.00
20157;PMS5003;10239;56.820;24.416;2024-03-22T03:08:04;21.80;18.20;8.00
20157;PMS5003;10239;56.820;24.416;2024-03-22T03:10:30;22.80;13.40;8.40
20157;PMS5003;10239;56.820;24.416;2024-03-22T03:12:57;21.80;19.40;6.20
20157;PMS5003;10239;56.820;24.416;2024-03-22T03:15:23;34.40;24.60;9.20
20157;PMS5003;10239;56.820;24.416;2024-03-22T03:17:50;35.60;20.60;9.00
20157;PMS5003;10239;56.820;24.416;2024-03-22T03:20:17;36.60;31.80;10.00
20157;PMS5003;10239;56.820;24.416;2024-03-22T03:22:44;23.80;20.20;9.20
20157;PMS5003;10239;56.820;24.416;2024-03-22T03:25:10;37.40;27.00;11.20
20157;PMS5003;10239;56.820;24.416;2024-03-22T03:27:37;35.20;26.80;10.00
20157;PMS5003;10239;56.820;24.416;2024-03-22T03:30:03;27.80;23.20;10.20
20157;PMS5003;10239;56.820;24.416;2024-03-22T03:32:30;30.60;23.80;4.00
20157;PMS5003;10239;56.820;24.416;2024-03-22T03:34:57;23.20;16.40;9.00
20157;PMS5003;10239;56.820;24.416;2024-03-22T03:37:23;27.20;20.20;5.20
20157;PMS5003;10239;56.820;24.416;2024-03-22T03:39:50;26.80;22.20;10.20
20157;PMS5003;10239;56.820;24.416;2024-03-22T03:42:16;25.00;18.00;6.00
20157;PMS5003;10239;56.820;24.416;2024-03-22T03:44:42;28.60;22.60;6.60
20157;PMS5003;10239;56.820;24.416;2024-03-22T03:47:08;22.80;14.40;6.00
20157;PMS5003;10239;56.820;24.416;2024-03-22T03:49:35;31.80;23.40;11.00
20157;PMS5003;10239;56.820;24.416;2024-03-22T03:52:01;23.60;20.20;8.60
20157;PMS5003;10239;56.820;24.416;2024-03-22T03:54:27;31.80;25.20;8.60
20157;PMS5003;10239;56.820;24.416;2024-03-22T03:56:54;31.80;24.40;9.00
20157;PMS5003;10239;56.820;24.416;2024-03-22T03:59:20;27.80;26.20;9.00
20157;PMS5003;10239;56.820;24.416;2024-03-22T04:01:46;32.60;21.00;6.00
20157;PMS5003;10239;56.820;24.416;2024-03-22T04:04:13;31.00;24.20;10.80
20157;PMS5003;10239;56.820;24.416;2024-03-22T04:06:39;24.80;18.00;6.00
20157;PMS5003;10239;56.820;24.416;2024-03-22T04:09:05;20.20;17.60;8.40
20157;PMS5003;10239;56.820;24.416;2024-03-22T04:11:32;29.20;15.20;4.40
20157;PMS5003;10239;56.820;24.416;2024-03-22T04:13:58;25.80;15.80;2.00
20157;PMS5003;10239;56.820;24.416;2024-03-22T04:16:24;8.00;8.00;1.60
20157;PMS5003;10239;56.820;24.416;2024-03-22T04:18:50;23.60;20.20;8.80
20157;PMS5003;10239;56.820;24.416;2024-03-22T04:21:17;31.00;19.60;8.00
20157;PMS5003;10239;56.820;24.416;2024-03-22T04:23:43;32.80;21.80;8.00
20157;PMS5003;10239;56.820;24.416;2024-03-22T04:26:10;30.00;20.00;8.20
20157;PMS5003;10239;56.820;24.416;2024-03-22T04:28:36;24.60;17.80;8.60
20157;PMS5003;10239;56.820;24.416;2024-03-22T04:31:03;21.40;15.40;7.60
20157;PMS5003;10239;56.820;24.416;2024-03-22T04:33:32;37.00;27.00;9.40
20157;PMS5003;10239;56.820;24.416;2024-03-22T04:35:58;25.00;18.80;8.00
20157;PMS5003;10239;56.820;24.416;2024-03-22T04:38:26;30.60;23.40;9.60
20157;PMS5003;10239;56.820;24.416;2024-03-22T04:40:53;40.40;23.60;6.80
20157;PMS5003;10239;56.820;24.416;2024-03-22T04:43:20;36.20;22.40;8.80
20157;PMS5003;10239;56.820;24.416;2024-03-22T04:45:47;27.80;20.80;8.00
20157;PMS5003;10239;56.820;24.416;2024-03-22T04:48:14;25.60;14.80;6.80
20157;PMS5003;10239;56.820;24.416;2024-03-22T04:50:42;23.20;17.60;5.20
20157;PMS5003;10239;56.820;24.416;2024-03-22T04:53:09;20.60;16.40;5.00
20157;PMS5003;10239;56.820;24.416;2024-03-22T04:55:35;16.80;12.00;5.00
20157;PMS5003;10239;56.820;24.416;2024-03-22T04:58:02;17.20;14.00;4.80
20157;PMS5003;10239;56.820;24.416;2024-03-22T05:00:28;19.80;14.80;4.60
20157;PMS5003;10239;56.820;24.416;2024-03-22T05:02:54;17.80;10.80;3.20
20157;PMS5003;10239;56.820;24.416;2024-03-22T05:05:21;18.40;14.60;6.00
20157;PMS5003;10239;56.820;24.416;2024-03-22T05:07:48;13.60;7.80;4.00
20157;PMS5003;10239;56.820;24.416;2024-03-22T05:10:14;22.00;17.60;6.40
20157;PMS5003;10239;56.820;24.416;2024-03-22T05:12:42;27.00;15.00;5.80
20157;PMS5003;10239;56.820;24.416;2024-03-22T05:15:08;13.20;13.20;4.00
20157;PMS5003;10239;56.820;24.416;2024-03-22T05:17:35;19.60;12.60;5.20
20157;PMS5003;10239;56.820;24.416;2024-03-22T05:20:01;15.60;13.20;5.40
20157;PMS5003;10239;56.820;24.416;2024-03-22T05:22:28;14.80;9.20;2.00
20157;PMS5003;10239;56.820;24.416;2024-03-22T05:24:54;10.00;9.40;2.60
20157;PMS5003;10239;56.820;24.416;2024-03-22T05:27:23;17.00;10.00;4.60
20157;PMS5003;10239;56.820;24.416;2024-03-22T05:29:49;9.60;9.60;4.20
20157;PMS5003;10239;56.820;24.416;2024-03-22T05:32:15;6.00;6.00;2.00
20157;PMS5003;10239;56.820;24.416;2024-03-22T05:34:42;13.60;11.40;5.00
20157;PMS5003;10239;56.820;24.416;2024-03-22T05:37:08;13.80;11.20;4.20
20157;PMS5003;10239;56.820;24.416;2024-03-22T05:39:34;13.60;11.00;4.20
20157;PMS5003;10239;56.820;24.416;2024-03-22T05:42:01;13.60;12.00;4.00
20157;PMS5003;10239;56.820;24.416;2024-03-22T05:44:27;12.00;11.20;3.80
20157;PMS5003;10239;56.820;24.416;2024-03-22T05:46:54;8.80;5.80;1.00
20157;PMS5003;10239;56.820;24.416;2024-03-22T05:49:20;10.40;7.00;3.40
20157;PMS5003;10239;56.820;24.416;2024-03-22T05:51:46;15.60;9.40;4.20
20157;PMS5003;10239;56.820;24.416;2024-03-22T05:54:13;10.60;10.00;4.00
20157;PMS5003;10239;56.820;24.416;2024-03-22T05:56:39;9.20;9.20;2.80
20157;PMS5003;10239;56.820;24.416;2024-03-22T05:59:06;9.60;6.00;2.00
20157;PMS5003;10239;56.820;24.416;2024-03-22T06:01:32;13.60;7.40;1.80
20157;PMS5003;10239;56.820;24.416;2024-03-22T06:03:58;14.40;9.00;3.80
20157;PMS5003;10239;56.820;24.416;2024-03-22T06:06:25;17.00;9.60;4.40
20157;PMS5003;10239;56.820;24.416;2024-03-22T06:08:52;13.00;9.20;4.00
20157;PMS5003;10239;56.820;24.416;2024-03-22T06:11:20;17.60;10.40;4.00
20157;PMS5003;10239;56.820;24.416;2024-03-22T06:13:49;7.60;5.20;1.00
20157;PMS5003;10239;56.820;24.416;2024-03-22T06:16:16;10.00;10.00;4.00
20157;PMS5003;10239;56.820;24.416;2024-03-22T06:18:43;12.20;9.00;2.20
20157;PMS5003;10239;56.820;24.416;2024-03-22T06:21:09;14.00;10.20;3.60
20157;PMS5003;10239;56.820;24.416;2024-03-22T06:23:35;18.60;12.60;3.40
20157;PMS5003;10239;56.820;24.416;2024-03-22T06:26:02;5.00;5.00;0.60
20157;PMS5003;10239;56.820;24.416;2024-03-22T06:28:29;9.80;5.60;1.00
20157;PMS5003;10239;56.820;24.416;2024-03-22T06:30:55;11.80;10.00;5.00
20157;PMS5003;10239;56.820;24.416;2024-03-22T06:33:22;18.60;14.60;5.00
20157;PMS5003;10239;56.820;24.416;2024-03-22T06:35:48;9.40;6.80;2.00
20157;PMS5003;10239;56.820;24.416;2024-03-22T06:38:15;8.00;7.80;3.00
20157;PMS5003;10239;56.820;24.416;2024-03-22T06:40:41;13.40;10.00;4.00
20157;PMS5003;10239;56.820;24.416;2024-03-22T06:43:08;20.40;17.20;6.00
20157;PMS5003;10239;56.820;24.416;2024-03-22T06:45:34;9.00;5.20;0.00
20157;PMS5003;10239;56.820;24.416;2024-03-22T06:48:01;13.60;9.20;4.00
20157;PMS5003;10239;56.820;24.416;2024-03-22T06:50:28;12.80;7.60;4.00
20157;PMS5003;10239;56.820;24.416;2024-03-22T06:52:54;10.00;6.40;4.60
20157;PMS5003;10239;56.820;24.416;2024-03-22T06:55:20;9.60;1.80;1.20
20157;PMS5003;10239;56.820;24.416;2024-03-22T06:57:48;21.00;12.80;5.00
20157;PMS5003;10239;56.820;24.416;2024-03-22T07:00:16;20.40;11.40;4.60
20157;PMS5003;10239;56.820;24.416;2024-03-22T07:02:43;16.60;11.40;4.20
20157;PMS5003;10239;56.820;24.416;2024-03-22T07:05:10;18.40;10.00;4.00
20157;PMS5003;10239;56.820;24.416;2024-03-22T07:07:37;20.40;11.80;6.00
20157;PMS5003;10239;56.820;24.416;2024-03-22T07:10:04;16.00;13.20;5.00
20157;PMS5003;10239;56.820;24.416;2024-03-22T07:12:34;17.00;13.20;5.00
20157;PMS5003;10239;56.820;24.416;2024-03-22T07:15:00;16.20;9.60;2.60
20157;PMS5003;10239;56.820;24.416;2024-03-22T07:17:28;16.60;10.00;3.80
20157;PMS5003;10239;56.820;24.416;2024-03-22T07:19:55;13.40;9.20;2.00
20157;PMS5003;10239;56.820;24.416;2024-03-22T07:22:24;20.40;13.60;4.00
20157;PMS5003;10239;56.820;24.416;2024-03-22T07:24:51;16.00;13.60;5.00
20157;PMS5003;10239;56.820;24.416;2024-03-22T07:27:17;17.80;10.00;5.20
20157;PMS5003;10239;56.820;24.416;2024-03-22T07:29:44;21.20;13.20;5.00
20157;PMS5003;10239;56.820;24.416;2024-03-22T07:32:10;11.80;10.00;4.40
20157;PMS5003;10239;56.820;24.416;2024-03-22T07:34:37;18.60;18.00;5.80
20157;PMS5003;10239;56.820;24.416;2024-03-22T07:37:03;14.00;14.00;5.40
20157;PMS5003;10239;56.820;24.416;2024-03-22T07:39:30;17.60;16.40;5.20
20157;PMS5003;10239;56.820;24.416;2024-03-22T07:41:56;15.80;13.40;4.80
20157;PMS5003;10239;56.820;24.416;2024-03-22T07:44:22;24.20;13.80;5.00
20157;PMS5003;10239;56.820;24.416;2024-03-22T07:46:54;22.20;16.40;5.40
20157;PMS5003;10239;56.820;24.416;2024-03-22T07:49:20;33.00;17.40;6.80
20157;PMS5003;10239;56.820;24.416;2024-03-22T07:51:47;24.80;18.40;8.00
20157;PMS5003;10239;56.820;24.416;2024-03-22T07:54:13;17.80;10.80;4.40
20157;PMS5003;10239;56.820;24.416;2024-03-22T07:56:40;14.60;13.80;5.20
20157;PMS5003;10239;56.820;24.416;2024-03-22T07:59:06;19.80;15.80;5.20
20157;PMS5003;10239;56.820;24.416;2024-03-22T08:01:33;24.60;18.40;5.00
20157;PMS5003;10239;56.820;24.416;2024-03-22T08:03:59;18.60;17.80;6.00
20157;PMS5003;10239;56.820;24.416;2024-03-22T08:06:25;18.20;15.60;6.00
20157;PMS5003;10239;56.820;24.416;2024-03-22T08:08:52;25.40;16.80;8.20
20157;PMS5003;10239;56.820;24.416;2024-03-22T08:11:18;20.80;15.80;7.00
20157;PMS5003;10239;56.820;24.416;2024-03-22T08:13:45;19.20;16.00;6.00
20157;PMS5003;10239;56.820;24.416;2024-03-22T08:16:12;21.40;19.00;9.00
20157;PMS5003;10239;56.820;24.416;2024-03-22T08:18:38;24.40;14.80;6.80
20157;PMS5003;10239;56.820;24.416;2024-03-22T08:21:05;24.00;17.40;9.20
20157;PMS5003;10239;56.820;24.416;2024-03-22T08:23:31;20.20;13.80;5.00
20157;PMS5003;10239;56.820;24.416;2024-03-22T08:25:58;25.00;15.20;5.40
20157;PMS5003;10239;56.820;24.416;2024-03-22T08:28:25;26.40;17.00;6.60
20157;PMS5003;10239;56.820;24.416;2024-03-22T08:30:51;26.20;17.40;6.00
20157;PMS5003;10239;56.820;24.416;2024-03-22T08:33:18;27.40;18.40;5.80
20157;PMS5003;10239;56.820;24.416;2024-03-22T08:35:44;9.20;9.20;6.00
20157;PMS5003;10239;56.820;24.416;2024-03-22T08:38:11;17.60;15.60;6.20
20157;PMS5003;10239;56.820;24.416;2024-03-22T08:40:40;16.60;13.20;7.40
20157;PMS5003;10239;56.820;24.416;2024-03-22T08:43:06;23.60;13.80;6.80
20157;PMS5003;10239;56.820;24.416;2024-03-22T08:45:33;21.40;17.20;6.00
20157;PMS5003;10239;56.820;24.416;2024-03-22T08:48:00;20.80;16.20;5.80
20157;PMS5003;10239;56.820;24.416;2024-03-22T08:50:26;25.20;18.80;5.80
20157;PMS5003;10239;56.820;24.416;2024-03-22T08:52:53;19.80;13.20;6.00
20157;PMS5003;10239;56.820;24.416;2024-03-22T08:55:19;15.20;10.80;5.00
20157;PMS5003;10239;56.820;24.416;2024-03-22T08:57:46;19.80;12.40;3.00
20157;PMS5003;10239;56.820;24.416;2024-03-22T09:00:13;13.20;10.20;4.20
20157;PMS5003;10239;56.820;24.416;2024-03-22T09:02:39;18.00;13.40;5.20
20157;PMS5003;10239;56.820;24.416;2024-03-22T09:05:06;19.00;13.80;5.00
20157;PMS5003;10239;56.820;24.416;2024-03-22T09:07:34;19.80;16.60;6.40
20157;PMS5003;10239;56.820;24.416;2024-03-22T09:10:00;19.00;11.00;6.00
20157;PMS5003;10239;56.820;24.416;2024-03-22T09:12:27;20.40;17.80;9.00
20157;PMS5003;10239;56.820;24.416;2024-03-22T09:14:53;19.00;13.00;5.20
20157;PMS5003;10239;56.820;24.416;2024-03-22T09:17:20;18.20;9.60;4.80
20157;PMS5003;10239;56.820;24.416;2024-03-22T09:19:46;4.60;0.00;0.00
20157;PMS5003;10239;56.820;24.416;2024-03-22T09:22:13;13.60;12.00;4.20
20157;PMS5003;10239;56.820;24.416;2024-03-22T09:24:40;13.00;10.20;4.20
20157;PMS5003;10239;56.820;24.416;2024-03-22T09:27:07;15.80;10.60;3.80
20157;PMS5003;10239;56.820;24.416;2024-03-22T09:29:36;16.60;12.60;4.00
20157;PMS5003;10239;56.820;24.416;2024-03-22T09:32:03;12.20;11.00;4.00
20157;PMS5003;10239;56.820;24.416;2024-03-22T09:34:30;12.20;10.00;3.00
20157;PMS5003;10239;56.820;24.416;2024-03-22T09:36:57;13.20;6.40;0.00
20157;PMS5003;10239;56.820;24.416;2024-03-22T09:39:23;9.20;6.60;1.60
20157;PMS5003;10239;56.820;24.416;2024-03-22T09:41:50;14.00;10.20;5.00
20157;PMS5003;10239;56.820;24.416;2024-03-22T09:44:18;12.40;9.60;4.20
20157;PMS5003;10239;56.820;24.416;2024-03-22T09:46:48;10.80;9.00;2.20
20157;PMS5003;10239;56.820;24.416;2024-03-22T09:49:17;11.00;9.20;4.00
20157;PMS5003;10239;56.820;24.416;2024-03-22T09:51:44;8.40;7.60;1.80
20157;PMS5003;10239;56.820;24.416;2024-03-22T09:54:14;13.80;9.00;4.40
20157;PMS5003;10239;56.820;24.416;2024-03-22T09:56:42;14.20;9.80;2.60
20157;PMS5003;10239;56.820;24.416;2024-03-22T09:59:13;14.80;8.60;2.40
20157;PMS5003;10239;56.820;24.416;2024-03-22T10:01:40;7.80;6.00;1.60
20157;PMS5003;10239;56.820;24.416;2024-03-22T10:04:08;5.60;5.60;2.00
20157;PMS5003;10239;56.820;24.416;2024-03-22T10:06:35;13.80;8.00;2.00
20157;PMS5003;10239;56.820;24.416;2024-03-22T10:09:02;5.60;4.60;1.00
20157;PMS5003;10239;56.820;24.416;2024-03-22T10:11:30;6.40;5.40;1.80
20157;PMS5003;10239;56.820;24.416;2024-03-22T10:13:56;8.60;7.40;1.60
20157;PMS5003;10239;56.820;24.416;2024-03-22T10:16:22;7.00;5.20;1.00
20157;PMS5003;10239;56.820;24.416;2024-03-22T10:18:48;4.00;4.00;1.00
20157;PMS5003;10239;56.820;24.416;2024-03-22T10:21:18;8.60;5.60;1.40
20157;PMS5003;10239;56.820;24.416;2024-03-22T10:23:44;7.80;4.40;2.00
20157;PMS5003;10239;56.820;24.416;2024-03-22T10:26:14;4.20;3.00;1.60
20157;PMS5003;10239;56.820;24.416;2024-03-22T10:28:44;10.00;5.80;1.40
20157;PMS5003;10239;56.820;24.416;2024-03-22T10:31:12;4.00;3.80;1.00
20157;PMS5003;10239;56.820;24.416;2024-03-22T10:33:38;5.00;4.00;1.20
20157;PMS5003;10239;56.820;24.416;2024-03-22T10:36:06;4.00;4.00;1.00
20157;PMS5003;10239;56.820;24.416;2024-03-22T10:38:33;4.60;3.60;1.20
20157;PMS5003;10239;56.820;24.416;2024-03-22T10:41:03;9.80;7.60;1.80
20157;PMS5003;10239;56.820;24.416;2024-03-22T10:43:30;7.40;6.80;1.20
20157;PMS5003;10239;56.820;24.416;2024-03-22T10:46:00;5.20;4.20;1.00
20157;PMS5003;10239;56.820;24.416;2024-03-22T10:48:30;5.60;5.00;1.00
20157;PMS5003;10239;56.820;24.416;2024-03-22T10:51:00;10.20;6.20;1.20
20157;PMS5003;10239;56.820;24.416;2024-03-22T10:53:29;5.20;5.20;2.00
20157;PMS5003;10239;56.820;24.416;2024-03-22T10:55:57;7.00;4.80;1.20
20157;PMS5003;10239;56.820;24.416;2024-03-22T10:58:26;9.60;5.20;1.80
20157;PMS5003;10239;56.820;24.416;2024-03-22T11:00:53;6.20;5.40;1.40
20157;PMS5003;10239;56.820;24.416;2024-03-22T11:03:20;6.20;4.80;2.00
20157;PMS5003;10239;56.820;24.416;2024-03-22T11:05:54;8.60;5.20;2.00
20157;PMS5003;10239;56.820;24.416;2024-03-22T11:08:25;7.60;5.20;2.00
20157;PMS5003;10239;56.820;24.416;2024-03-22T11:11:08;4.40;3.20;1.00
20157;PMS5003;10239;56.820;24.416;2024-03-22T11:13:41;7.60;6.20;1.40
20157;PMS5003;10239;56.820;24.416;2024-03-22T11:16:09;5.80;3.60;1.80
20157;PMS5003;10239;56.820;24.416;2024-03-22T11:18:36;7.80;4.60;1.00
20157;PMS5003;10239;56.820;24.416;2024-03-22T11:21:02;11.40;6.40;1.60
20157;PMS5003;10239;56.820;24.416;2024-03-22T11:23:29;6.80;5.00;1.00
20157;PMS5003;10239;56.820;24.416;2024-03-22T11:25:56;6.80;3.20;1.00
20157;PMS5003;10239;56.820;24.416;2024-03-22T11:28:22;6.40;5.20;2.00
20157;PMS5003;10239;56.820;24.416;2024-03-22T11:30:49;9.40;4.00;1.00
20157;PMS5003;10239;56.820;24.416;2024-03-22T11:33:15;7.00;4.00;1.00
20157;PMS5003;10239;56.820;24.416;2024-03-22T11:35:41;5.60;4.00;1.00
20157;PMS5003;10239;56.820;24.416;2024-03-22T11:38:09;7.00;1.00;0.40
20157;PMS5003;10239;56.820;24.416;2024-03-22T11:40:35;3.20;1.60;1.00
20157;PMS5003;10239;56.820;24.416;2024-03-22T11:43:02;3.20;3.20;0.00
20157;PMS5003;10239;56.820;24.416;2024-03-22T11:45:29;0.00;0.00;0.00
20157;PMS5003;10239;56.820;24.416;2024-03-22T11:48:01;10.00;5.00;1.00
20157;PMS5003;10239;56.820;24.416;2024-03-22T11:50:28;5.40;5.40;2.40
20157;PMS5003;10239;56.820;24.416;2024-03-22T11:52:55;5.00;4.60;1.00
20157;PMS5003;10239;56.820;24.416;2024-03-22T11:55:22;4.80;4.80;2.00
20157;PMS5003;10239;56.820;24.416;2024-03-22T11:57:53;5.00;3.60;1.00
20157;PMS5003;10239;56.820;24.416;2024-03-22T12:00:19;2.00;2.00;0.80
20157;PMS5003;10239;56.820;24.416;2024-03-22T12:02:45;5.40;1.40;0.60
20157;PMS5003;10239;56.820;24.416;2024-03-22T12:05:12;7.80;5.00;1.00
20157;PMS5003;10239;56.820;24.416;2024-03-22T12:07:39;4.80;4.80;1.00
20157;PMS5003;10239;56.820;24.416;2024-03-22T12:10:06;6.20;5.20;1.00
20157;PMS5003;10239;56.820;24.416;2024-03-22T12:12:33;8.80;4.80;1.00
20157;PMS5003;10239;56.820;24.416;2024-03-22T12:14:59;8.80;5.20;1.80
20157;PMS5003;10239;56.820;24.416;2024-03-22T12:17:25;5.20;5.20;2.00
20157;PMS5003;10239;56.820;24.416;2024-03-22T12:19:53;6.00;6.00;2.00
20157;PMS5003;10239;56.820;24.416;2024-03-22T12:22:21;4.00;2.60;0.80
20157;PMS5003;10239;56.820;24.416;2024-03-22T12:24:48;7.00;5.40;2.00
20157;PMS5003;10239;56.820;24.416;2024-03-22T12:27:14;3.80;3.20;1.00
20157;PMS5003;10239;56.820;24.416;2024-03-22T12:29:43;6.40;6.00;2.00
20157;PMS5003;10239;56.820;24.416;2024-03-22T12:32:09;8.80;4.80;1.00
20157;PMS5003;10239;56.820;24.416;2024-03-22T12:34:36;4.20;4.20;1.60
20157;PMS5003;10239;56.820;24.416;2024-03-22T12:37:02;5.60;3.40;1.00
20157;PMS5003;10239;56.820;24.416;2024-03-22T12:39:29;9.80;6.00;1.00
20157;PMS5003;10239;56.820;24.416;2024-03-22T12:41:55;5.40;2.60;1.00
20157;PMS5003;10239;56.820;24.416;2024-03-22T12:44:21;8.60;5.40;2.00
20157;PMS5003;10239;56.820;24.416;2024-03-22T12:46:48;6.80;3.80;1.80
20157;PMS5003;10239;56.820;24.416;2024-03-22T12:49:16;6.00;4.60;2.00
20157;PMS5003;10239;56.820;24.416;2024-03-22T12:51:43;7.00;5.00;0.00
20157;PMS5003;10239;56.820;24.416;2024-03-22T12:54:09;5.00;3.20;0.00
20157;PMS5003;10239;56.820;24.416;2024-03-22T12:56:36;5.20;4.60;1.00
20157;PMS5003;10239;56.820;24.416;2024-03-22T12:59:04;9.80;5.00;2.00
20157;PMS5003;10239;56.820;24.416;2024-03-22T13:01:31;7.60;2.80;1.00
20157;PMS5003;10239;56.820;24.416;2024-03-22T13:03:57;3.40;3.40;1.20
20157;PMS5003;10239;56.820;24.416;2024-03-22T13:06:24;5.20;4.40;1.00
20157;PMS5003;10239;56.820;24.416;2024-03-22T13:08:50;5.80;5.80;1.00
20157;PMS5003;10239;56.820;24.416;2024-03-22T13:11:16;3.80;3.80;0.80
20157;PMS5003;10239;56.820;24.416;2024-03-22T13:13:43;4.80;4.80;1.00
20157;PMS5003;10239;56.820;24.416;2024-03-22T13:16:09;8.40;5.00;1.00
20157;PMS5003;10239;56.820;24.416;2024-03-22T13:18:40;4.40;2.40;1.00
20157;PMS5003;10239;56.820;24.416;2024-03-22T13:21:07;4.00;4.00;0.00
20157;PMS5003;10239;56.820;24.416;2024-03-22T13:23:34;13.20;8.00;1.00
20157;PMS5003;10239;56.820;24.416;2024-03-22T13:26:04;7.00;7.00;2.00
20157;PMS5003;10239;56.820;24.416;2024-03-22T13:28:30;5.00;3.20;0.00
20157;PMS5003;10239;56.820;24.416;2024-03-22T13:31:03;12.00;5.00;2.00
20157;PMS5003;10239;56.820;24.416;2024-03-22T13:33:33;6.80;6.20;1.20
20157;PMS5003;10239;56.820;24.416;2024-03-22T13:36:00;5.40;5.20;1.60
20157;PMS5003;10239;56.820;24.416;2024-03-22T13:38:27;6.20;4.20;0.20
20157;PMS5003;10239;56.820;24.416;2024-03-22T13:40:57;5.40;4.20;1.00
20157;PMS5003;10239;56.820;24.416;2024-03-22T13:43:27;6.60;4.60;1.40
20157;PMS5003;10239;56.820;24.416;2024-03-22T13:45:53;6.00;4.20;1.00
20157;PMS5003;10239;56.820;24.416;2024-03-22T13:48:21;5.20;5.20;2.00
20157;PMS5003;10239;56.820;24.416;2024-03-22T13:50:53;10.00;7.60;2.00
20157;PMS5003;10239;56.820;24.416;2024-03-22T13:53:20;8.00;5.00;1.00